createdAt,value
2023-04-19T00:00:24.232Z,6.63
2023-04-19T00:02:52.761Z,6.97
2023-04-19T00:05:22.354Z,6.60
2023-04-19T00:07:52.315Z,6.90
2023-04-19T00:10:20.668Z,6.40
2023-04-19T00:12:48.898Z,6.17
2023-04-19T00:15:17.146Z,6.20
2023-04-19T00:17:45.505Z,5.60
2023-04-19T00:20:13.993Z,5.90
2023-04-19T00:22:42.242Z,6.00
2023-04-19T00:25:11.900Z,6.13
2023-04-19T00:27:40.117Z,5.93
2023-04-19T00:30:08.798Z,5.33
2023-04-19T00:32:37.241Z,5.57
2023-04-19T00:35:05.707Z,5.37
2023-04-19T00:37:33.980Z,5.60
2023-04-19T00:40:02.135Z,5.53
2023-04-19T00:42:31.715Z,5.10
2023-04-19T00:44:59.881Z,5.10
2023-04-19T00:47:28.092Z,5.13
2023-04-19T00:49:56.645Z,4.60
2023-04-19T00:52:25.038Z,4.83
2023-04-19T00:54:53.853Z,4.60
2023-04-19T00:57:22.687Z,5.07
2023-04-19T00:59:52.484Z,4.83
2023-04-19T01:02:21.977Z,4.53
2023-04-19T01:04:50.389Z,5.53
2023-04-19T01:07:18.695Z,4.47
2023-04-19T01:09:47.014Z,4.70
2023-04-19T01:12:15.277Z,4.60
2023-04-19T01:14:44.082Z,4.57
2023-04-19T01:17:14.360Z,4.97
2023-04-19T01:19:42.572Z,5.37
2023-04-19T01:22:11.315Z,4.93
2023-04-19T01:24:40.821Z,4.90
2023-04-19T01:27:09.019Z,4.77
2023-04-19T01:29:37.222Z,5.20
2023-04-19T01:32:05.542Z,4.90
2023-04-19T01:34:33.699Z,5.00
2023-04-19T01:37:01.973Z,4.90
2023-04-19T01:39:30.128Z,4.63
2023-04-19T01:41:59.650Z,5.47
2023-04-19T01:44:29.011Z,4.77
2023-04-19T01:46:57.231Z,4.77
2023-04-19T01:49:25.561Z,4.90
2023-04-19T01:51:53.857Z,5.37
2023-04-19T01:54:22.076Z,4.73
2023-04-19T01:56:50.359Z,5.13
2023-04-19T01:59:19.952Z,5.27
2023-04-19T02:01:48.207Z,4.60
2023-04-19T02:04:16.639Z,4.97
2023-04-19T02:06:45.171Z,5.07
2023-04-19T02:09:13.369Z,5.00
2023-04-19T02:11:41.568Z,4.60
2023-04-19T02:14:09.745Z,5.03
2023-04-19T02:16:39.299Z,5.30
2023-04-19T02:19:07.544Z,5.40
2023-04-19T02:21:38.785Z,4.97
2023-04-19T02:24:13.038Z,5.07
2023-04-19T02:26:41.323Z,5.23
2023-04-19T02:29:09.881Z,5.10
2023-04-19T02:31:39.529Z,5.40
2023-04-19T02:34:07.772Z,5.20
2023-04-19T02:36:36.106Z,5.50
2023-04-19T02:39:05.664Z,5.10
2023-04-19T02:41:33.956Z,4.80
2023-04-19T02:44:02.194Z,5.10
2023-04-19T02:46:30.533Z,4.80
2023-04-19T02:49:02.149Z,4.80
2023-04-19T02:51:30.820Z,5.13
2023-04-19T02:53:58.981Z,4.67
2023-04-19T02:56:27.198Z,4.80
2023-04-19T02:58:57.058Z,4.73
2023-04-19T03:01:25.385Z,5.10
2023-04-19T03:03:53.776Z,4.90
2023-04-19T03:06:23.413Z,4.70
2023-04-19T03:08:51.690Z,4.70
2023-04-19T03:11:20.047Z,4.60
2023-04-19T03:13:48.227Z,4.80
2023-04-19T03:16:16.471Z,4.90
2023-04-19T03:18:46.236Z,4.77
2023-04-19T03:21:16.239Z,4.70
2023-04-19T03:23:45.804Z,4.50
2023-04-19T03:26:14.220Z,5.03
2023-04-19T03:28:42.437Z,4.43
2023-04-19T03:31:10.674Z,4.73
2023-04-19T03:33:38.908Z,4.67
2023-04-19T03:36:08.018Z,4.50
2023-04-19T03:38:36.215Z,4.60
2023-04-19T03:41:05.818Z,4.00
2023-04-19T03:43:34.001Z,4.10
2023-04-19T03:46:02.254Z,4.20
2023-04-19T03:48:30.913Z,4.27
2023-04-19T03:50:59.115Z,4.27
2023-04-19T03:53:27.299Z,4.03
2023-04-19T03:55:55.555Z,3.90
2023-04-19T03:58:25.196Z,4.00
2023-04-19T04:00:53.538Z,3.93
2023-04-19T04:03:22.042Z,3.97
2023-04-19T04:05:50.658Z,3.47
2023-04-19T04:08:18.890Z,4.00
2023-04-19T04:10:47.104Z,4.23
2023-04-19T04:13:15.310Z,3.73
2023-04-19T04:15:44.893Z,3.57
2023-04-19T04:18:13.185Z,3.27
2023-04-19T04:20:41.657Z,3.80
2023-04-19T04:23:10.815Z,4.13
2023-04-19T04:25:39.157Z,4.00
2023-04-19T04:28:07.742Z,3.30
2023-04-19T04:30:36.749Z,3.43
2023-04-19T04:33:06.378Z,3.50
2023-04-19T04:35:35.211Z,3.47
2023-04-19T04:38:11.034Z,3.47
2023-04-19T04:40:46.016Z,3.30
2023-04-19T04:43:14.195Z,3.40
2023-04-19T04:45:44.606Z,3.30
2023-04-19T04:48:14.514Z,3.70
2023-04-19T04:50:42.752Z,3.40
2023-04-19T04:53:13.047Z,5.47
2023-04-19T04:55:41.451Z,3.60
2023-04-19T04:58:09.725Z,3.70
2023-04-19T05:00:38.005Z,3.50
2023-04-19T05:03:06.384Z,3.37
2023-04-19T05:05:36.062Z,2.93
2023-04-19T05:08:04.430Z,3.20
2023-04-19T05:10:32.691Z,3.20
2023-04-19T05:13:00.905Z,3.43
2023-04-19T05:15:29.146Z,3.37
2023-04-19T05:17:57.439Z,2.90
2023-04-19T05:20:25.761Z,3.50
2023-04-19T05:23:00.281Z,3.17
2023-04-19T05:25:28.668Z,3.30
2023-04-19T05:27:57.898Z,3.13
2023-04-19T05:30:26.193Z,3.13
2023-04-19T05:32:54.495Z,3.10
2023-04-19T05:35:22.861Z,3.07
2023-04-19T05:37:51.556Z,3.23
2023-04-19T05:40:21.168Z,2.90
2023-04-19T05:42:49.442Z,2.73
2023-04-19T05:45:18.534Z,3.43
2023-04-19T05:47:46.907Z,3.00
2023-04-19T05:50:18.036Z,2.73
2023-04-19T05:52:46.348Z,3.80
2023-04-19T05:55:14.622Z,4.80
2023-04-19T05:57:44.237Z,3.27
2023-04-19T06:00:12.922Z,3.13
2023-04-19T06:02:41.313Z,3.23
2023-04-19T06:05:11.014Z,3.10
2023-04-19T06:07:43.194Z,3.00
2023-04-19T06:10:15.980Z,2.63
2023-04-19T06:12:46.212Z,3.20
2023-04-19T06:15:14.599Z,3.00
2023-04-19T06:17:42.882Z,2.97
2023-04-19T06:20:12.485Z,3.10
2023-04-19T06:22:45.029Z,3.27
2023-04-19T06:25:13.354Z,2.87
2023-04-19T06:27:41.658Z,2.77
2023-04-19T06:30:11.639Z,2.83
2023-04-19T06:32:39.928Z,3.10
2023-04-19T06:35:09.579Z,3.10
2023-04-19T06:37:37.799Z,2.77
2023-04-19T06:40:08.449Z,3.27
2023-04-19T06:42:36.791Z,3.47
2023-04-19T06:45:05.636Z,3.00
2023-04-19T06:47:35.948Z,2.80
2023-04-19T06:50:04.381Z,2.90
2023-04-19T06:52:32.633Z,2.67
2023-04-19T06:55:00.851Z,3.00
2023-04-19T06:57:29.192Z,3.07
2023-04-19T06:59:58.300Z,2.70
2023-04-19T07:02:26.758Z,2.80
2023-04-19T07:04:56.450Z,2.90
2023-04-19T07:07:24.694Z,2.63
2023-04-19T07:09:52.917Z,2.50
2023-04-19T07:12:21.244Z,2.50
2023-04-19T07:14:49.522Z,2.63
2023-04-19T07:17:18.796Z,3.67
2023-04-19T07:19:49.691Z,5.63
2023-04-19T07:22:19.266Z,2.90
2023-04-19T07:24:47.503Z,2.47
2023-04-19T07:27:16.514Z,4.30
2023-04-19T07:29:44.741Z,2.30
2023-04-19T07:32:13.729Z,3.03
2023-04-19T07:34:43.643Z,2.30
2023-04-19T07:37:12.488Z,2.50
2023-04-19T07:39:42.093Z,2.20
2023-04-19T07:42:10.457Z,2.27
2023-04-19T07:44:38.889Z,2.13
2023-04-19T07:47:07.315Z,2.20
2023-04-19T07:49:35.678Z,2.33
2023-04-19T07:52:03.965Z,2.10
2023-04-19T07:54:32.321Z,2.03
2023-04-19T07:57:02.115Z,2.20
2023-04-19T07:59:30.662Z,2.10
2023-04-19T08:01:58.938Z,2.27
2023-04-19T08:04:27.660Z,2.10
2023-04-19T08:06:57.155Z,2.00
2023-04-19T08:09:25.566Z,2.17
2023-04-19T08:11:54.212Z,2.07
2023-04-19T08:14:34.632Z,1.83
2023-04-19T08:19:36.003Z,2.17
2023-04-19T08:22:04.795Z,2.60
2023-04-19T08:24:32.999Z,2.63
2023-04-19T08:27:01.557Z,2.17
2023-04-19T08:29:31.227Z,2.00
2023-04-19T08:31:59.540Z,1.93
2023-04-19T08:34:27.798Z,2.90
2023-04-19T08:37:03.441Z,2.40
2023-04-19T08:39:34.197Z,2.10
2023-04-19T08:42:10.482Z,1.93
2023-04-19T08:45:12.961Z,2.40
2023-04-19T08:47:51.771Z,1.90
2023-04-19T08:50:33.450Z,2.50
2023-04-19T08:55:35.791Z,2.63
2023-04-19T08:58:09.649Z,2.73
2023-04-19T09:00:42.286Z,2.30
2023-04-19T09:03:11.428Z,2.20
2023-04-19T09:05:40.108Z,2.43
2023-04-19T09:08:24.900Z,2.13
2023-04-19T09:10:56.688Z,3.07
2023-04-19T09:13:25.402Z,2.50
2023-04-19T09:15:57.054Z,2.40
2023-04-19T09:18:26.464Z,2.10
2023-04-19T09:20:57.432Z,2.07
2023-04-19T09:23:26.815Z,2.13
2023-04-19T09:26:19.072Z,2.90
2023-04-19T09:28:57.049Z,2.50
2023-04-19T09:31:43.305Z,1.90
2023-04-19T09:34:15.818Z,2.40
2023-04-19T09:36:44.302Z,2.70
2023-04-19T09:39:14.487Z,2.33
2023-04-19T09:41:53.348Z,2.30
2023-04-19T09:44:53.106Z,2.37
2023-04-19T09:47:25.000Z,2.57
2023-04-19T09:50:15.349Z,2.13
2023-04-19T09:52:50.419Z,2.30
2023-04-19T09:57:50.440Z,2.23
2023-04-19T10:00:18.983Z,2.60
2023-04-19T10:02:54.499Z,2.37
2023-04-19T10:05:23.498Z,2.57
2023-04-19T10:07:53.278Z,3.33
2023-04-19T10:10:30.244Z,2.40
2023-04-19T10:13:19.007Z,2.60
2023-04-19T10:15:54.121Z,2.47
2023-04-19T10:18:29.071Z,2.60
2023-04-19T10:21:01.043Z,2.60
2023-04-19T10:23:30.303Z,2.60
2023-04-19T10:25:59.613Z,2.20
2023-04-19T10:28:31.163Z,2.70
2023-04-19T10:31:02.225Z,4.10
2023-04-19T10:33:32.749Z,11.30
2023-04-19T10:36:01.342Z,3.57
2023-04-19T10:38:39.966Z,2.63
2023-04-19T10:41:17.117Z,2.83
2023-04-19T10:43:47.146Z,2.70
2023-04-19T10:46:16.463Z,2.57
2023-04-19T10:48:55.866Z,2.83
2023-04-19T10:51:25.277Z,3.15
2023-04-19T10:53:57.709Z,2.63
2023-04-19T10:56:44.706Z,2.60
2023-04-19T10:59:22.313Z,2.57
2023-04-19T11:01:52.035Z,2.70
2023-04-19T11:04:22.142Z,3.10
2023-04-19T11:07:01.623Z,2.60
2023-04-19T11:09:31.245Z,3.00
2023-04-19T11:12:02.130Z,3.43
2023-04-19T11:14:32.066Z,3.07
2023-04-19T11:17:00.653Z,2.30
2023-04-19T11:19:30.282Z,2.50
2023-04-19T11:22:00.018Z,2.87
2023-04-19T11:24:28.438Z,2.90
2023-04-19T11:26:58.228Z,2.83
2023-04-19T11:29:26.460Z,2.90
2023-04-19T11:31:54.630Z,2.50
2023-04-19T11:34:24.446Z,2.58
2023-04-19T11:36:54.392Z,2.92
2023-04-19T11:39:22.687Z,2.70
2023-04-19T11:41:50.857Z,2.95
2023-04-19T11:44:20.795Z,2.72
2023-04-19T11:47:01.993Z,2.80
2023-04-19T11:49:30.720Z,2.80
2023-04-19T11:52:03.109Z,2.70
2023-04-19T11:54:33.541Z,3.10
2023-04-19T11:57:03.520Z,3.00
2023-04-19T11:59:33.343Z,3.40
2023-04-19T12:02:08.588Z,2.38
2023-04-19T12:04:37.261Z,2.90
2023-04-19T12:07:08.032Z,2.70
2023-04-19T12:09:36.838Z,2.70
2023-04-19T12:12:05.340Z,3.40
2023-04-19T12:14:34.219Z,3.30
2023-04-19T12:17:07.297Z,2.50
2023-04-19T12:19:38.596Z,3.10
2023-04-19T12:22:11.845Z,2.70
2023-04-19T12:24:40.775Z,2.63
2023-04-19T12:27:09.283Z,2.58
2023-04-19T12:29:39.285Z,2.78
2023-04-19T12:32:07.966Z,2.60
2023-04-19T12:34:36.263Z,2.78
2023-04-19T12:37:04.770Z,2.88
2023-04-19T12:39:34.509Z,2.75
2023-04-19T12:42:02.884Z,2.55
2023-04-19T12:44:31.165Z,2.60
2023-04-19T12:46:59.427Z,2.70
2023-04-19T12:49:27.735Z,2.70
2023-04-19T12:51:57.383Z,2.85
2023-04-19T12:54:25.916Z,2.47
2023-04-19T12:56:56.065Z,3.13
2023-04-19T12:59:24.260Z,2.50
2023-04-19T13:01:52.614Z,2.80
2023-04-19T13:04:21.408Z,2.80
2023-04-19T13:06:49.987Z,3.47
2023-04-19T13:09:18.267Z,2.75
2023-04-19T13:11:46.456Z,2.58
2023-04-19T13:14:16.288Z,3.00
2023-04-19T13:16:44.597Z,2.80
2023-04-19T13:19:12.818Z,2.60
2023-04-19T13:21:41.035Z,2.60
2023-04-19T13:24:09.378Z,2.53
2023-04-19T13:26:37.860Z,2.78
2023-04-19T13:29:08.376Z,3.20
2023-04-19T13:31:43.528Z,2.60
2023-04-19T13:34:12.316Z,3.03
2023-04-19T13:36:41.057Z,3.45
2023-04-19T13:39:10.055Z,2.80
2023-04-19T13:41:38.295Z,2.67
2023-04-19T13:44:06.513Z,2.47
2023-04-19T13:46:34.928Z,2.50
2023-04-19T13:49:04.503Z,2.30
2023-04-19T13:51:42.843Z,2.30
2023-04-19T13:54:19.312Z,2.38
2023-04-19T13:56:50.530Z,2.05
2023-04-19T13:59:20.829Z,2.67
2023-04-19T14:01:49.150Z,2.60
2023-04-19T14:04:19.371Z,2.45
2023-04-19T14:06:48.067Z,2.20
2023-04-19T14:09:16.760Z,2.22
2023-04-19T14:11:44.970Z,1.90
2023-04-19T14:14:13.311Z,1.90
2023-04-19T14:16:41.608Z,2.35
2023-04-19T14:19:10.390Z,2.08
2023-04-19T14:21:39.983Z,2.20
2023-04-19T14:24:08.738Z,2.40
2023-04-19T14:26:37.089Z,1.88
2023-04-19T14:29:06.074Z,2.43
2023-04-19T14:31:34.435Z,1.98
2023-04-19T14:34:02.700Z,2.20
2023-04-19T14:36:31.238Z,2.30
2023-04-19T14:39:00.790Z,2.10
2023-04-19T14:41:29.043Z,2.27
2023-04-19T14:43:57.376Z,2.40
2023-04-19T14:46:25.878Z,2.03
2023-04-19T14:48:54.332Z,2.17
2023-04-19T14:51:22.552Z,2.10
2023-04-19T14:53:50.801Z,2.17
2023-04-19T14:56:20.350Z,1.97
2023-04-19T14:58:48.570Z,1.90
2023-04-19T15:01:17.216Z,2.30
2023-04-19T15:03:45.891Z,2.50
2023-04-19T15:06:14.433Z,2.30
2023-04-19T15:08:43.047Z,2.37
2023-04-19T15:11:11.277Z,2.33
2023-04-19T15:13:40.835Z,2.70
2023-04-19T15:16:09.419Z,2.00
2023-04-19T15:18:37.656Z,2.33
2023-04-19T15:21:06.284Z,2.50
2023-04-19T15:23:34.488Z,2.20
2023-04-19T15:26:02.781Z,2.17
2023-04-19T15:28:31.001Z,2.57
2023-04-19T15:31:01.082Z,2.43
2023-04-19T15:33:29.587Z,2.27
2023-04-19T15:35:58.172Z,2.77
2023-04-19T15:38:27.455Z,2.53
2023-04-19T15:40:56.199Z,2.90
2023-04-19T15:43:24.956Z,2.93
2023-04-19T15:45:53.547Z,3.00
2023-04-19T15:48:23.166Z,2.53
2023-04-19T15:50:51.714Z,2.60
2023-04-19T15:53:19.973Z,2.80
2023-04-19T15:55:48.242Z,2.60
2023-04-19T15:58:16.963Z,2.57
2023-04-19T16:00:46.638Z,2.70
2023-04-19T16:03:14.984Z,2.60
2023-04-19T16:05:44.620Z,2.60
2023-04-19T16:08:17.336Z,2.77
2023-04-19T16:10:46.287Z,2.70
2023-04-19T16:13:14.637Z,2.57
2023-04-19T16:15:43.163Z,2.70
2023-04-19T16:18:12.202Z,2.80
2023-04-19T16:20:41.337Z,2.97
2023-04-19T16:23:10.984Z,2.83
2023-04-19T16:25:41.266Z,3.10
2023-04-19T16:28:09.587Z,2.60
2023-04-19T16:30:37.767Z,2.97
2023-04-19T16:33:06.152Z,2.93
2023-04-19T16:35:34.506Z,2.90
2023-04-19T16:38:04.351Z,2.80
2023-04-19T16:40:34.042Z,2.57
2023-04-19T16:43:02.290Z,2.50
2023-04-19T16:45:30.628Z,3.10
2023-04-19T16:47:58.916Z,3.00
2023-04-19T16:50:27.490Z,3.17
2023-04-19T16:52:55.918Z,2.73
2023-04-19T16:55:24.214Z,2.83
2023-04-19T16:57:55.978Z,3.60
2023-04-19T17:00:24.890Z,3.00
2023-04-19T17:02:53.822Z,3.23
2023-04-19T17:05:22.192Z,3.50
2023-04-19T17:07:50.656Z,3.53
2023-04-19T17:10:19.101Z,3.47
2023-04-19T17:12:47.374Z,3.27
2023-04-19T17:15:19.991Z,3.50
2023-04-19T17:17:48.459Z,3.27
2023-04-19T17:20:16.773Z,3.97
2023-04-19T17:22:45.220Z,3.20
2023-04-19T17:25:16.174Z,3.27
2023-04-19T17:27:44.538Z,2.87
2023-04-19T17:30:13.189Z,3.07
2023-04-19T17:32:42.987Z,3.00
2023-04-19T17:35:11.383Z,3.00
2023-04-19T17:37:39.986Z,3.10
2023-04-19T17:40:08.911Z,2.90
2023-04-19T17:42:37.215Z,3.47
2023-04-19T17:45:06.525Z,3.50
2023-04-19T17:47:35.288Z,3.83
2023-04-19T17:50:08.715Z,3.80
2023-04-19T17:52:37.392Z,5.00
2023-04-19T17:55:06.505Z,3.17
2023-04-19T17:57:34.984Z,3.50
2023-04-19T18:00:07.345Z,3.50
2023-04-19T18:02:35.965Z,2.53
2023-04-19T18:05:04.718Z,3.00
2023-04-19T18:07:34.360Z,3.20
2023-04-19T18:10:03.205Z,3.13
2023-04-19T18:12:31.488Z,2.80
2023-04-19T18:14:59.753Z,2.47
2023-04-19T18:17:28.065Z,3.00
2023-04-19T18:19:56.389Z,3.37
2023-04-19T18:22:24.731Z,3.10
2023-04-19T18:24:54.535Z,3.10
2023-04-19T18:27:22.800Z,2.83
2023-04-19T18:29:52.979Z,2.80
2023-04-19T18:32:24.246Z,3.37
2023-04-19T18:34:52.747Z,2.93
2023-04-19T18:37:21.094Z,2.90
2023-04-19T18:39:49.499Z,2.77
2023-04-19T18:42:19.146Z,3.13
2023-04-19T18:44:52.897Z,3.20
2023-04-19T18:47:22.774Z,3.87
2023-04-19T18:50:03.458Z,2.53
2023-04-19T18:52:32.641Z,3.10
2023-04-19T18:55:01.077Z,3.10
2023-04-19T18:57:34.444Z,2.97
2023-04-19T19:00:05.535Z,2.80
2023-04-19T19:02:36.192Z,3.00
2023-04-19T19:05:07.530Z,2.90
2023-04-19T19:07:37.693Z,3.13
2023-04-19T19:10:18.469Z,3.10
2023-04-19T19:12:50.885Z,2.70
2023-04-19T19:15:19.420Z,3.10
2023-04-19T19:17:49.587Z,2.83
2023-04-19T19:20:19.071Z,3.47
2023-04-19T19:22:47.469Z,2.80
2023-04-19T19:25:15.812Z,2.80
2023-04-19T19:28:02.300Z,2.70
2023-04-19T19:30:34.736Z,2.97
2023-04-19T19:33:04.784Z,2.67
2023-04-19T19:35:33.595Z,2.70
2023-04-19T19:38:01.982Z,2.50
2023-04-19T19:40:32.341Z,2.83
2023-04-19T19:43:01.373Z,3.17
2023-04-19T19:45:30.071Z,3.00
2023-04-19T19:48:00.612Z,3.10
2023-04-19T19:53:01.233Z,2.83
2023-04-19T19:55:29.968Z,3.00
2023-04-19T19:58:18.572Z,2.77
2023-04-19T20:00:50.307Z,3.07
2023-04-19T20:03:35.419Z,2.70
2023-04-19T20:08:42.433Z,2.80
2023-04-19T20:11:12.817Z,2.57
2023-04-19T20:13:41.635Z,2.70
2023-04-19T20:16:11.296Z,2.70
2023-04-19T20:18:42.491Z,2.63
2023-04-19T20:21:11.186Z,2.80
2023-04-19T20:23:39.895Z,2.87
2023-04-19T20:26:08.255Z,2.70
2023-04-19T20:28:36.593Z,2.57
2023-04-19T20:31:04.845Z,2.90
2023-04-19T20:33:33.139Z,2.40
2023-04-19T20:36:03.720Z,2.43
2023-04-19T20:38:34.557Z,2.63
2023-04-19T20:41:03.103Z,2.63
2023-04-19T20:43:31.758Z,2.83
2023-04-19T20:46:00.273Z,2.57
2023-04-19T20:48:28.580Z,2.43
2023-04-19T20:50:56.892Z,2.60
2023-04-19T20:53:26.977Z,2.47
2023-04-19T20:55:55.230Z,2.90
2023-04-19T20:58:23.687Z,4.20
2023-04-19T21:00:52.003Z,2.70
2023-04-19T21:03:21.199Z,2.30
2023-04-19T21:05:49.661Z,2.67
2023-04-19T21:08:19.046Z,2.50
2023-04-19T21:10:48.786Z,2.43
2023-04-19T21:13:17.057Z,2.70
2023-04-19T21:15:45.418Z,2.60
2023-04-19T21:18:13.968Z,2.90
2023-04-19T21:20:42.195Z,2.40
2023-04-19T21:23:10.986Z,2.43
2023-04-19T21:25:39.284Z,2.40
2023-04-19T21:28:08.938Z,2.37
2023-04-19T21:30:38.669Z,2.57
2023-04-19T21:33:07.117Z,2.40
2023-04-19T21:35:35.823Z,2.47
2023-04-19T21:38:04.243Z,2.40
2023-04-19T21:40:32.536Z,2.40
2023-04-19T21:43:00.826Z,2.43
2023-04-19T21:45:30.494Z,2.57
2023-04-19T21:47:58.800Z,2.70
2023-04-19T21:50:27.197Z,2.63
2023-04-19T21:52:55.581Z,2.60
2023-04-19T21:55:24.013Z,2.67
2023-04-19T21:57:52.361Z,2.67
2023-04-19T22:00:20.872Z,2.67
2023-04-19T22:02:50.737Z,2.30
2023-04-19T22:05:19.469Z,2.33
2023-04-19T22:07:47.830Z,2.60
2023-04-19T22:10:16.463Z,2.40
2023-04-19T22:12:57.401Z,2.90
2023-04-19T22:15:27.953Z,2.87
2023-04-19T22:17:58.183Z,2.50
2023-04-19T22:20:26.815Z,2.47
2023-04-19T22:22:55.105Z,2.70
2023-04-19T22:25:23.405Z,3.00
2023-04-19T22:27:51.800Z,3.00
2023-04-19T22:30:20.095Z,2.80
2023-04-19T22:32:48.431Z,3.13
2023-04-19T22:35:19.115Z,2.80
2023-04-19T22:37:48.934Z,2.63
2023-04-19T22:40:17.216Z,2.70
2023-04-19T22:42:45.482Z,2.70
2023-04-19T22:45:13.708Z,2.53
2023-04-19T22:47:42.012Z,2.60
2023-04-19T22:50:11.322Z,2.63
2023-04-19T22:52:40.914Z,2.57
2023-04-19T22:55:10.155Z,2.43
2023-04-19T22:57:38.430Z,2.40
2023-04-19T23:00:08.887Z,2.40
2023-04-19T23:02:37.710Z,2.53
2023-04-19T23:05:06.403Z,3.23
2023-04-19T23:07:34.634Z,2.70
2023-04-19T23:10:04.255Z,2.83
2023-04-19T23:12:33.526Z,2.83
2023-04-19T23:15:02.128Z,2.80
2023-04-19T23:17:30.424Z,2.47
2023-04-19T23:19:58.635Z,2.30
2023-04-19T23:22:26.860Z,2.27
2023-04-19T23:24:55.048Z,2.50
2023-04-19T23:27:24.623Z,2.47
2023-04-19T23:29:52.859Z,2.40
2023-04-19T23:32:21.302Z,3.00
2023-04-19T23:34:49.519Z,2.53
2023-04-19T23:37:18.067Z,3.17
2023-04-19T23:39:46.346Z,3.07
2023-04-19T23:42:14.651Z,3.13
2023-04-19T23:44:44.278Z,2.63
2023-04-19T23:47:12.478Z,2.73
2023-04-19T23:49:40.816Z,2.30
2023-04-19T23:52:09.103Z,2.60
2023-04-19T23:54:37.322Z,2.60
2023-04-19T23:57:05.655Z,2.77
2023-04-19T23:59:36.278Z,2.40
